Portada
METAR-TAF:

METAR-TAF

Aeroports :

Manado, Indonèsia

latitud: 01-32N, longitud: 124-55E, altitud: 80 m

Observació

L'informe es va fer fa 20 minuts, a les 16:30 UTC
Vent 1 kt amb direcció variable
Temperatura 25°C
Humitat 89%
Pressió 1009 hPa
Visibilitat: 9000 m
Escasses núvols a una alçada de 2200 ft

METAR: WAMM 051630Z VRB01KT 9000 FEW022 25/23 Q1009 NOSIG

Hora: 23:50 (16:50 UTC)

Pronòstic

L'informe es va fer fa 5 hores i 50 minuts, a les 11:00 UTC
Pronòstic vàlid del 05 a les 12 UTC al 06 a les 18 UTC
Vent 2 kt amb direcció variable
Visibilitat 10 km o més
Núvols disperses a una alçada de 2100 ft
Probabilitat 40% :
Temporalment
l' 05 a les 15 UTC al 05 a les 19 UTC
Visibilitat: 5000 m
pluja

TAF: WAMM 051100Z 0512/0618 VRB02KT 9999 SCT021 PROB40 TEMPO 0515/0519 5000 RA

Observacions i pronòstics meteorològics de més de 4000 aeroports (METAR i TAF).

Les estacions disponibles són els punts grocs i vermells al mapa.

Posi el ratolí al punt desitjat per veure el nom de l'estació.

Feu clic per veure les observacions i els pronòstics meteorològics.

Per canviar el mapa: feu clic els botons verds amb una creu de color negre per apropar; al botó verd amb un guió per allunyar la imatge; o en les fletxes verdes per a mapes adjacents.


METAR-TAF: